Offenbach, Germany

11:43 AM CEST on July 31, 2015 (GMT +0200)
Wiesbaden Army Air Field | | Change Station
CLOSE
Current Station
Airport
Location: Wiesbaden,
Elevation: 459 ft
Nearby Weather Stations

Elev 459 ft 50.05 °N, 8.33 °E | Updated 8 minutes ago

Mostly Cloudy
Mostly Cloudy
66 °F
Feels Like 66 °F
N
4
Wind Variable Wind from Variable

Today
High -- | Low -- °F
--% Chance of Precip.
Yesterday
High -- | Low -- °F
Precip. -- in
5:51 AM 9:10 PM
Full, 100% visible
Pressure 30.12 in
Visibility 6.2 miles
Clouds Mostly Cloudy 3700 ft
Dew Point 48 °F
Humidity 52%
Rainfall 0.00 in
Snow Depth Not available.
UV 4 out of 12
Pollen Not available.
Air Quality Not available.
Flu Activity Not available.
SPECI ETOU 310935Z AUTO VRB03KT 9999 BKN037 19/09 A3012 RMK AO2

More Conditions Fewer Conditions

Pressure 30.12 in
Visibility 6.2 miles
Clouds Mostly Cloudy 3700 ft
Dew Point 48 °F
Humidity 52%
Rainfall 0.00 in
Snow Depth Not available.
UV 4 out of 12
Pollen Not available.
Air Quality Not available.
Flu Activity Not available.
SPECI ETOU 310935Z AUTO VRB03KT 9999 BKN037 19/09 A3012 RMK AO2

More Conditions Fewer Conditions

10-Day Weather Forecast

×

Almanac

Astronomy

Jul. 31, 2015 Rise Set
Actual Time
Civil Twilight
Nautical Twilight
Astronomical Twilight
Moon
Length of Visible Light
Length of Day
Tomorrow will be .
, % of the Moon is Illuminated

Today's Extremes

Country Highs Country Lows

Community

WunderPhotos

Upload Photos

1,842,639 photos uploaded!

WunderBlogs® & News

Nearby

Air Quality

  Air Quality AQ Index Pollutant
Not available.

Snow Depth

Station Depth Elevation

Earthquake Activity

City Distance Mag. Time & Date
Minimum magnitude displayed is 2.5.

Coastal Water Temperatures

Place Temperature

Stations

Nearby Weather Stations

Station Location Temp. Windchill Dew Point Humidity Wind Precip. Elev Updated Type